Detall de PIREP

Printer-friendly versionPDF version

[2015/04/12 18:08:00]
Flight IATA:CT3205
Pilot Number:016
Company ICAO:CAT
Aircraft Type:B738/F
PAX:116
Departing Airport: EDDT
Destination Airport: LEPA
Alternate Airport:LEBL
Online: VATSIM
Route:BRANE Q201 BUREL UM736 TABAT UL87 ANELA UN869 MILPA UN852 DIVKO UN852 VERSO UL129 LUNIK
Flight Level:F380
No Slew and time accel
No pause
Crash detect
Detect pilot in Cockpit between each 30 and 45 minutes
18:08 Zero fuel Weight: 113659 Lbs, Fuel Weight: 22288 Lbs
18:08 VATSIM:EDDT 130120Z 23014KT CAVOK 12/01 Q1017
18:08 VATSIM:LEPA 130100Z 05007KT CAVOK 10/10 Q1028 NOSIG
18:09 Parking Brakes off
18:12 Take-off
18:12 Take off Weight: 135476 Lbs
18:12 Wind: 229º @ 013 Knots Heading: 258º
18:12 POS N52º 33´ 29´´ E013º 17´ 22´´
18:12 Flaps:3 at 162 Knots
18:12 Gear Up: 164 Knots
18:13 Flaps:2 at 208 Knots
18:13 Flaps:1 at 236 Knots
18:14 Flaps:0 at 247 Knots
18:27 Wind:239º@041 Knots Heading: 190º Ground Speed: 442 Knots Altitude 32713 ft
18:31 TOC
18:31 Fuel Weight: 18070 Lb
18:42 Wind:236º@017 Knots Heading: 195º Ground Speed: 441 Knots Altitude 38379 ft
18:57 Wind:268º@023 Knots Heading: 229º Ground Speed: 434 Knots Altitude 38435 ft
19:12 Wind:201º@007 Knots Heading: 224º Ground Speed: 446 Knots Altitude 38494 ft
19:27 Wind:102º@006 Knots Heading: 193º Ground Speed: 452 Knots Altitude 38490 ft
19:42 Wind:053º@008 Knots Heading: 193º Ground Speed: 455 Knots Altitude 38464 ft
19:57 Wind:044º@003 Knots Heading: 201º Ground Speed: 454 Knots Altitude 38461 ft
19:59 TOD
19:59 Fuel Weight: 9907 Lb
20:12 Wind:063º@015 Knots Heading: 174º Ground Speed: 305 Knots Altitude 11906 ft
20:16 Flaps:1 at 241 Knots
20:18 Flaps:2 at 200 Knots
20:19 Flaps:3 at 186 Knots
20:19 Flaps:4 at 182 Knots
20:20 Flaps:5 at 163 Knots
20:21 Gear Down: 160 Knots
20:22 Flaps:6 at 142 Knots
20:22 Flaps:7 at 135 Knots
20:22 Flaps:8 at 132 Knots
20:25 TouchDown:Rate -173 ft/min Speed: 128 Knots
20:25 VATSIM:LEPA 130330Z 05007KT CAVOK 11/10 Q1028 NOSIG
20:25 Land
20:25 Wind:052º@007 Knots
20:25 Heading: 236º
20:25 Flight Duration: 02:13
20:25 Landing Weight: 122412 Lbs
20:25 POS N39º 32´ 54´´ E002º 44´ 48´´
20:27 Parking brakes on
20:27 Block to Block Duration: 02:18
20:27 Final Fuel: 8626 Lbls
20:27 Spent Fuel: 13661 Lbls
20:27 Flight Length: 900 NM
20:27 TOD Land Length: 126 NM

Exportar CSV

Powered by Drupal - Modified by Danger4k